createdAt,value
2019-03-05T00:03:41.610Z,13.10
2019-03-05T00:08:54.252Z,11.40
2019-03-05T00:14:06.244Z,12.60
2019-03-05T00:19:35.326Z,7.97
2019-03-05T00:25:10.124Z,17.53
2019-03-05T00:30:43.715Z,16.93
2019-03-05T00:36:17.632Z,15.63
2019-03-05T00:41:44.075Z,12.33
2019-03-05T00:47:15.912Z,20.67
2019-03-05T00:53:01.641Z,12.98
2019-03-05T00:58:36.240Z,20.20
2019-03-05T01:04:42.533Z,14.77
2019-03-05T01:09:51.901Z,8.77
2019-03-05T01:15:01.125Z,12.33
2019-03-05T01:20:11.460Z,13.18
2019-03-05T01:25:45.306Z,12.43
2019-03-05T01:31:19.491Z,9.90
2019-03-05T01:36:32.873Z,12.30
2019-03-05T01:41:42.413Z,12.00
2019-03-05T01:46:49.762Z,11.23
2019-03-05T01:51:59.631Z,6.70
2019-03-05T01:57:09.124Z,10.07
2019-03-05T02:02:21.781Z,3.27
2019-03-05T02:07:35.459Z,5.63
2019-03-05T02:12:50.830Z,4.57
2019-03-05T02:18:02.598Z,5.37
2019-03-05T02:23:31.209Z,4.33
2019-03-05T02:29:05.157Z,3.90
2019-03-05T02:34:52.871Z,7.67
2019-03-05T02:40:23.627Z,8.60
2019-03-05T02:45:44.809Z,6.27
2019-03-05T02:51:23.328Z,6.97
2019-03-05T02:56:43.042Z,5.73
2019-03-05T03:02:09.331Z,8.53
2019-03-05T03:07:19.212Z,8.40
2019-03-05T03:12:27.748Z,7.27
2019-03-05T03:17:41.545Z,12.00
2019-03-05T03:22:57.808Z,10.50
2019-03-05T03:28:06.349Z,6.90
2019-03-05T03:33:16.274Z,12.70
2019-03-05T03:38:31.088Z,9.18
2019-03-05T03:43:44.325Z,10.73
2019-03-05T03:48:56.770Z,8.33
2019-03-05T03:54:05.398Z,6.27
2019-03-05T03:59:35.590Z,7.43
2019-03-05T04:04:44.253Z,11.37
2019-03-05T04:09:55.053Z,9.07
2019-03-05T04:15:03.491Z,13.13
2019-03-05T04:20:15.471Z,9.53
2019-03-05T04:25:25.247Z,9.40
2019-03-05T04:30:35.097Z,10.17
2019-03-05T04:35:47.818Z,7.73
2019-03-05T04:40:57.923Z,9.40
2019-03-05T04:46:31.139Z,8.40
2019-03-05T04:51:46.895Z,8.37
2019-03-05T04:56:57.847Z,11.60
2019-03-05T05:02:06.702Z,11.13
2019-03-05T05:07:19.995Z,10.63
2019-03-05T05:12:31.655Z,9.73
2019-03-05T05:17:47.988Z,9.00
2019-03-05T05:22:55.971Z,9.83
2019-03-05T05:28:04.170Z,9.43
2019-03-05T05:33:14.094Z,11.13
2019-03-05T05:38:26.344Z,15.03
2019-03-05T05:43:34.247Z,12.93
2019-03-05T05:54:16.868Z,11.77
2019-03-05T05:59:26.753Z,8.15
2019-03-05T06:04:39.427Z,9.33
2019-03-05T06:09:49.403Z,9.77
2019-03-05T06:20:26.979Z,8.18
2019-03-05T06:25:39.565Z,7.33
2019-03-05T06:30:49.511Z,7.90
2019-03-05T06:36:03.153Z,7.57
2019-03-05T06:41:13.161Z,6.70
2019-03-05T06:46:25.788Z,9.10
2019-03-05T06:51:40.201Z,8.30
2019-03-05T06:56:52.237Z,8.83
2019-03-05T07:01:58.571Z,9.77
2019-03-05T07:07:07.494Z,9.67
2019-03-05T07:12:52.075Z,9.23
2019-03-05T07:18:25.381Z,9.23
2019-03-05T07:24:05.794Z,8.87
2019-03-05T07:29:18.631Z,10.57
2019-03-05T07:34:31.140Z,6.97
2019-03-05T07:39:41.893Z,8.07
2019-03-05T07:44:53.237Z,7.13
2019-03-05T07:50:06.689Z,7.00
2019-03-05T07:55:20.487Z,7.42
2019-03-05T08:00:33.058Z,8.50
2019-03-05T08:05:50.870Z,7.13
2019-03-05T08:11:03.652Z,6.57
2019-03-05T08:16:19.223Z,8.50
2019-03-05T08:21:30.786Z,8.37
2019-03-05T08:26:45.287Z,10.07
2019-03-05T08:31:56.029Z,10.43
2019-03-05T08:37:05.999Z,10.00
2019-03-05T08:42:17.739Z,9.33
2019-03-05T08:47:26.739Z,14.03
2019-03-05T08:52:35.804Z,11.37
2019-03-05T08:57:43.928Z,10.47
2019-03-05T09:02:57.425Z,14.30
2019-03-05T09:08:09.187Z,10.47
2019-03-05T09:13:32.426Z,12.50
2019-03-05T09:18:30.334Z,10.60
2019-03-05T09:23:37.845Z,9.20
2019-03-05T09:28:52.461Z,9.97
2019-03-05T09:34:04.997Z,9.57
2019-03-05T09:39:15.875Z,9.27
2019-03-05T09:44:28.506Z,10.23
2019-03-05T09:49:36.365Z,11.57
2019-03-05T09:54:48.230Z,10.17
2019-03-05T10:00:02.966Z,9.83
2019-03-05T10:05:16.131Z,8.97
2019-03-05T10:10:29.464Z,5.53
2019-03-05T10:15:43.244Z,5.63
2019-03-05T10:20:55.089Z,8.43
2019-03-05T10:26:06.730Z,7.97
2019-03-05T10:31:18.898Z,4.77
2019-03-05T10:36:29.881Z,6.83
2019-03-05T10:41:39.064Z,7.00
2019-03-05T10:46:47.417Z,5.23
2019-03-05T10:51:55.748Z,4.67
2019-03-05T10:57:06.550Z,3.97
2019-03-05T11:02:15.777Z,7.58
2019-03-05T11:07:26.760Z,5.42
2019-03-05T11:12:37.681Z,5.57
2019-03-05T11:17:47.097Z,5.87
2019-03-05T11:22:57.848Z,5.50
2019-03-05T11:28:09.722Z,4.73
2019-03-05T11:33:23.285Z,6.67
2019-03-05T11:38:38.855Z,5.57
2019-03-05T11:43:51.532Z,3.10
2019-03-05T11:49:05.803Z,2.83
2019-03-05T11:54:13.850Z,5.30
2019-03-05T11:59:23.053Z,4.40
2019-03-05T12:04:35.623Z,6.22
2019-03-05T12:09:48.241Z,6.05
2019-03-05T12:14:58.949Z,4.83
2019-03-05T12:20:10.187Z,4.17
2019-03-05T12:25:24.068Z,3.98
2019-03-05T12:30:35.828Z,4.65
2019-03-05T12:35:43.705Z,5.22
2019-03-05T12:40:57.277Z,4.63
2019-03-05T12:46:08.917Z,5.03
2019-03-05T12:51:18.755Z,3.13
2019-03-05T12:56:28.468Z,4.30
2019-03-05T13:01:39.606Z,5.10
2019-03-05T13:06:51.050Z,7.20
2019-03-05T13:11:58.331Z,3.10
2019-03-05T13:17:10.946Z,6.20
2019-03-05T13:22:28.906Z,3.93
2019-03-05T13:27:37.478Z,4.27
2019-03-05T13:32:47.312Z,3.47
2019-03-05T13:38:03.127Z,6.47
2019-03-05T13:43:11.246Z,3.83
2019-03-05T13:48:34.523Z,6.55
2019-03-05T13:54:21.379Z,6.40
2019-03-05T13:59:55.528Z,4.23
2019-03-05T14:05:13.733Z,8.53
2019-03-05T14:10:22.693Z,4.30
2019-03-05T14:15:37.025Z,6.50
2019-03-05T14:20:47.079Z,4.37
2019-03-05T14:25:56.212Z,5.70
2019-03-05T14:31:09.003Z,3.50
2019-03-05T14:36:19.085Z,5.27
2019-03-05T14:41:25.183Z,4.93
2019-03-05T14:46:39.725Z,4.23
2019-03-05T14:51:50.958Z,8.00
2019-03-05T14:57:00.128Z,5.17
2019-03-05T15:02:11.338Z,6.57
2019-03-05T15:07:21.385Z,5.30
2019-03-05T15:12:30.309Z,5.70
2019-03-05T15:17:41.463Z,4.20
2019-03-05T15:22:48.558Z,5.50
2019-03-05T15:27:58.950Z,7.23
2019-03-05T15:33:07.951Z,6.37
2019-03-05T15:38:16.941Z,6.72
2019-03-05T15:43:28.709Z,4.97
2019-03-05T15:48:37.151Z,6.45
2019-03-05T15:53:49.814Z,6.60
2019-03-05T15:58:59.102Z,6.43
2019-03-05T16:04:10.220Z,5.80
2019-03-05T16:09:20.235Z,4.17
2019-03-05T16:14:32.887Z,3.50
2019-03-05T16:19:41.757Z,4.03
2019-03-05T16:25:13.828Z,3.97
2019-03-05T16:30:39.728Z,7.17
2019-03-05T16:36:05.480Z,6.77
2019-03-05T16:41:41.832Z,2.93
2019-03-05T16:46:58.153Z,4.90
2019-03-05T16:52:22.305Z,7.63
2019-03-05T16:57:49.465Z,7.40
2019-03-05T17:03:07.591Z,4.97
2019-03-05T17:08:42.485Z,5.53
2019-03-05T17:13:53.225Z,5.53
2019-03-05T17:19:00.550Z,6.17
2019-03-05T17:24:10.565Z,7.37
2019-03-05T17:29:21.656Z,11.77
2019-03-05T17:35:52.643Z,7.67
2019-03-05T17:41:04.580Z,7.03
2019-03-05T17:46:14.987Z,5.77
2019-03-05T17:51:25.299Z,8.70
2019-03-05T17:56:34.275Z,8.90
2019-03-05T18:01:46.217Z,7.67
2019-03-05T18:06:59.361Z,8.00
2019-03-05T18:12:07.007Z,6.13
2019-03-05T18:17:19.625Z,10.45
2019-03-05T18:22:32.359Z,8.63
2019-03-05T18:27:43.203Z,6.73
2019-03-05T18:32:56.003Z,9.57
2019-03-05T18:38:05.094Z,8.83
2019-03-05T18:43:14.330Z,10.03
2019-03-05T18:48:25.988Z,9.13
2019-03-05T18:53:40.274Z,10.47
2019-03-05T18:58:52.887Z,8.97
2019-03-05T19:04:03.781Z,4.63
2019-03-05T19:09:18.234Z,7.03
2019-03-05T19:14:31.758Z,5.97
2019-03-05T19:19:40.677Z,8.83
2019-03-05T19:24:49.522Z,7.20
2019-03-05T19:30:02.245Z,10.73
2019-03-05T19:35:13.318Z,8.07
2019-03-05T19:40:24.131Z,8.90
2019-03-05T19:45:39.598Z,8.07
2019-03-05T19:50:50.397Z,8.03
2019-03-05T19:55:59.860Z,9.27
2019-03-05T20:01:11.718Z,9.03
2019-03-05T20:06:19.005Z,11.38
2019-03-05T20:11:31.688Z,8.13
2019-03-05T20:17:00.107Z,15.13
2019-03-05T20:22:11.243Z,11.10
2019-03-05T20:27:22.278Z,14.73
2019-03-05T20:32:33.159Z,8.23
2019-03-05T20:37:45.967Z,9.43
2019-03-05T20:42:56.707Z,7.80
2019-03-05T20:48:09.065Z,9.30
2019-03-05T20:53:18.063Z,5.97
2019-03-05T20:58:27.399Z,7.40
2019-03-05T21:03:36.466Z,12.20
2019-03-05T21:08:47.279Z,7.93
2019-03-05T21:13:54.649Z,6.07
2019-03-05T21:19:02.594Z,6.67
2019-03-05T21:24:15.591Z,10.67
2019-03-05T21:29:25.411Z,8.95
2019-03-05T21:34:36.330Z,8.50
2019-03-05T21:39:45.309Z,10.17
2019-03-05T21:44:56.073Z,7.27
2019-03-05T21:50:03.416Z,6.90
2019-03-05T21:55:14.415Z,5.87
2019-03-05T22:00:27.812Z,4.15
2019-03-05T22:05:40.462Z,5.27
2019-03-05T22:10:56.099Z,8.10
2019-03-05T22:16:06.803Z,9.53
2019-03-05T22:21:18.519Z,10.03
2019-03-05T22:26:29.274Z,6.13
2019-03-05T22:31:40.427Z,7.10
2019-03-05T22:36:48.426Z,9.47
2019-03-05T22:41:58.284Z,8.97
2019-03-05T22:47:11.848Z,7.67
2019-03-05T22:52:21.190Z,9.15
2019-03-05T22:57:34.116Z,5.43
2019-03-05T23:02:43.749Z,5.33
2019-03-05T23:07:53.635Z,5.30
2019-03-05T23:13:04.454Z,7.00
2019-03-05T23:18:11.974Z,5.67
2019-03-05T23:23:21.872Z,5.63
2019-03-05T23:28:30.314Z,5.93
2019-03-05T23:33:40.146Z,5.57
2019-03-05T23:38:49.999Z,4.27
2019-03-05T23:43:57.290Z,4.67
2019-03-05T23:49:10.119Z,6.10
2019-03-05T23:54:18.794Z,5.63
2019-03-05T23:59:30.500Z,6.47
